x

Pensacola - 115nm Ese Of Pensacola, Fl (42039) Wave Buoy

10:50pm - Fri 19th Dec 2014 All times are CST. -6 hours from GMT.

  • Sig Wave height 1.6ft
  • Swell Direction
  • Peak Period 3s
  • Average Period 4s
  • Wind
    11mph, 13mph gusts
  • Sea Temp 75°f
  • Air Temp 69°f
  • Sea Pressure 1018.5mb
  • Pensacola - 115nm Ese Of Pensacola, Fl
  • Pensacola - 115nm Ese Of Pensacola, Fl

More Historic Weather Station data

Upgrade to MSW Pro to gain access to the past 30 days of data for over 8000 Wavebouys and Weather Stations around the globe.

Join Pro

Comparision Forecast

View Surf forecast
   
Fri 12/19 10:50pm 1.6ft 3s 4s 11 13 mph 1018.5mb 75f 69f
9:50pm 1.6ft 4s 4s 9 13 mph 1019mb 75f 69f
8:50pm 1.6ft 4s 4s 9 13 mph 1018.7mb 75f 69f
7:50pm 1.6ft 4s 4s 9 11 mph 1018.9mb 75f 69f
6:50pm 2ft 4s 4s 11 16 mph 1018.2mb 75f 69f
5:50pm 2ft 4s 4s 13 18 mph 1017.8mb 75f 68f
4:50pm 2ft 4s 4s 16 18 mph 1017.4mb 75f 68f
3:50pm 2ft 5s 4s 13 18 mph 1017.5mb 75f 68f
2:50pm 2ft 4s 4s 13 16 mph 1017.6mb 75f 67f
1:50pm 2ft 4s 4s 13 18 mph 1017.8mb 76f 67f
12:50pm 1.6ft 4s 4s 11 16 mph 1018.6mb 76f 67f
11:50am 1.6ft 4s 4s 11 16 mph 1020mb 76f 67f
10:50am 1.6ft 4s 4s 11 13 mph 1020.8mb 76f 67f
9:50am 1.6ft 3s 3s 11 16 mph 1020.8mb 76f 66f
8:50am 1.6ft 3s 3s 13 18 mph 1020.4mb 76f 66f
7:50am 1.3ft 8s 3s 13 16 mph 1020mb 76f 67f
6:50am 1ft 7s 4s 11 16 mph 1019.6mb 76f 67f
5:50am 0.7ft  -  4s 7 11 mph 1019.3mb 76f 67f
4:50am 1ft 7s 5s 9 11 mph 1019.3mb 76f 67f
3:50am 0.7ft  -  5s 7 9 mph 1019.3mb 76f 67f
2:50am 0.7ft  -  5s 7 11 mph 1019.5mb 76f 67f
12:50am 1ft 8s 5s 7 9 mph 1020.2mb 76f 67f
Thu 12/18 11:50pm 1ft 7s 5s 7 9 mph 1020.7mb 76f 67f
10:50pm 1ft 7s 5s 4 7 mph 1021.1mb 76f 67f
9:50pm 1ft 8s 4s 4 7 mph 1021mb 76f 67f
8:50pm 1ft 8s 4s 4 7 mph 1020.7mb 76f 66f
7:50pm 1ft 8s 4s 4 9 mph 1020.8mb 76f 66f
6:50pm 1ft 8s 4s 4 7 mph 1020.3mb 76f 66f
5:50pm 0.7ft  -  4s 4 7 mph 1020.3mb 76f 66f
4:50pm 0.7ft  -  4s  -  2 mph 1020.1mb 76f 66f
3:50pm 0.7ft  -  4s 2 4 mph 1020mb 76f 68f
2:50pm 0.7ft  -  4s  -  4 mph 1019.9mb 76f 67f
1:50pm 0.7ft  -  4s 4 7 mph 1020.1mb 76f 66f
12:50pm 1ft 7s 4s 4 7 mph 1020.6mb 76f 66f
11:50am 1ft 6s 4s 2 4 mph 1021.9mb 76f 66f
10:50am 1ft 6s 4s 2 4 mph 1022.8mb 76f 66f
9:50am 1ft 6s 4s 7 9 mph 1023.1mb 76f 65f
8:50am 1ft 6s 4s 4 7 mph 1022.9mb 76f 66f
7:50am 1ft 6s 4s 2 4 mph 1022.3mb 76f 66f
6:50am 1ft 6s 4s 2 4 mph 1021.8mb 76f 65f
5:50am 1ft 6s 4s  -  4 mph 1021.3mb 76f 64f
4:50am 1ft 7s 4s 7 9 mph 1021.2mb 76f 64f
3:50am 1ft 7s 4s 7 9 mph 1021.2mb 76f 64f
2:50am 1ft 6s 4s 4 9 mph 1021.4mb 76f 64f
1:50am 1ft 6s 4s  -  2 mph 1021mb 76f 64f
12:50am 1.3ft 6s 4s 2 4 mph 1021.4mb 76f 63f
Wed 12/17 11:50pm 1.3ft 6s 4s  -  2 mph 1022mb 76f 63f
10:50pm 1.3ft 6s 4s 7 9 mph 1022.4mb 76f 63f
9:50pm 1.3ft 4s 4s 7 11 mph 1022.8mb 76f 63f
8:50pm 1.3ft 4s 4s 7 13 mph 1022.6mb 76f 63f
7:50pm 1.6ft 4s 4s 7 11 mph 1022.6mb 76f 63f
6:50pm 1.6ft 5s 4s 7 11 mph 1022.7mb 76f 63f
5:50pm 2ft 4s 4s 9 13 mph 1022.3mb 76f 62f
4:50pm 1.6ft 5s 4s 9 11 mph 1021.6mb 76f 62f
3:50pm 2ft 5s 4s 4 7 mph 1021mb 76f 62f
2:50pm 2ft 5s 4s 7 9 mph 1021.5mb 76f 62f
1:50pm 2.5ft 5s 4s 7 9 mph 1021.3mb 76f 62f
12:50pm 2.5ft 5s 4s 4 7 mph 1022.3mb 76f 62f
11:50am 2.5ft 5s 4s 4 9 mph 1023.3mb 76f 62f
10:50am 2.5ft 5s 4s 4
mph
1024mb 75f 61f
9:50am 2.5ft 6s 4s 7 9 mph 1024.5mb 75f 61f
8:50am 3ft 5s 4s 9 13 mph 1024.5mb 75f 61f
7:50am 3ft 6s 4s 9 13 mph 1023.9mb 75f 62f
6:50am 3.5ft 5s 4s 11 13 mph 1023.2mb 75f 62f
5:50am 3.5ft 6s 4s 9 13 mph 1023mb 75f 62f
4:50am 3.5ft 6s 4s 13 20 mph 1022.9mb 75f 63f
3:50am 3.5ft 6s 4s 11 13 mph 1022.2mb 75f 64f
2:50am 3.5ft 6s 4s 13 18 mph 1022mb 75f 65f
1:50am 3.5ft 6s 4s 13 16 mph 1022mb 75f 67f
12:50am 3.5ft 5s 4s 13 18 mph 1022.2mb 76f 68f
Tue 12/16 11:50pm 3.5ft 5s 4s 13 18 mph 1022.3mb 76f 68f
10:50pm 3.5ft 5s 4s 18 22 mph 1022.3mb 76f 69f
9:50pm 3ft 4s 4s 18 22 mph 1022.4mb 76f 69f
8:50pm 3ft 5s 4s 18 22 mph 1022.1mb 76f 70f
7:50pm 3ft 6s 4s 16 20 mph 1021.9mb 76f 69f
5:50pm 3.5ft 6s 4s 16 20 mph 1020.9mb 76f 71f
4:50pm 3ft 4s 4s 16 18 mph 1020.4mb 76f 72f
3:50pm 3.5ft 5s 4s 16 18 mph 1020.2mb 76f 72f
2:50pm 3.5ft 5s 4s 16 20 mph 1019.8mb 76f 73f
1:50pm 3.5ft 5s 4s 18 20 mph 1019.7mb 76f 72f
12:50pm 3.5ft 5s 4s 18 22 mph 1019.9mb 76f 72f
11:50am 3.5ft 5s 4s 22 27 mph 1020.5mb 76f 74f
10:50am 3.5ft 4s 4s 20 27 mph 1021.2mb 76f 74f
9:50am 3ft 4s 4s 20 25 mph 1021.6mb 76f 74f
8:50am 2.5ft 4s 3s 20 22 mph 1021.5mb 76f 74f
7:50am 2ft 4s 3s 18 22 mph 1020.9mb 76f 74f
6:50am 2ft 3s 3s 16 18 mph 1020.6mb 76f 73f